Orchard, TX (77464)

1:09 AM CST on January 31, 2015 (GMT -0600)
Squad Nine Fort Bend County EMS | Change Station
CLOSE
Current Station
Personal Weather Station
Location: Fulshear, TX
Elevation: 130 ft
Nearby Weather Stations

Elev 130 ft 29.70 °N, 95.90 °W | Updated 2 minutes ago

Partly Cloudy
Partly Cloudy
46.9 °F
Feels Like 47 °F
N
0.0
Wind Variable Wind from North
Gusts 0.0 mph

Today
High -- | Low -- °F
--% Chance of Precip.
Yesterday
High -- | Low -- °F
Precip. -- in
7:14 AM 6:00 PM
Waxing Gibbous, 88% visible
Pressure 30.27 in
Visibility 10.0 miles
Clouds Scattered Clouds 4100 ft
Mostly Cloudy 4600 ft
Windchill 47 °F
Dew Point 43 °F
Humidity 30%
Rainfall 0.00 in
Snow Depth Not available.
UV 0 out of 12
Pollen 8.30 out of 12
Air Quality Not available.
Flu Activity Not available.
METAR KTME 310655Z AUTO 08004KT 10SM SCT041 BKN046 08/03 A3027 RMK AO2

More Conditions Fewer Conditions

Pressure 30.27 in
Visibility 10.0 miles
Clouds Scattered Clouds 4100 ft
Mostly Cloudy 4600 ft
Windchill 47 °F
Dew Point 43 °F
Humidity 30%
Rainfall 0.00 in
Snow Depth Not available.
UV 0 out of 12
Pollen 8.30 out of 12
Air Quality Not available.
Flu Activity Not available.
METAR KTME 310655Z AUTO 08004KT 10SM SCT041 BKN046 08/03 A3027 RMK AO2

More Conditions Fewer Conditions

10-Day Weather Forecast

Almanac

Astronomy

Jan. 31, 2015 Rise Set
Actual Time
Civil Twilight
Nautical Twilight
Astronomical Twilight
Moon
Length of Visible Light
Length of Day
Tomorrow will be .
, % of the Moon is Illuminated

Today's Extremes

State Highs State Lows

Community

WunderPhotos

Upload Photos

1,792,014 photos uploaded!

WunderBlogs® & News

Nearby

Air Quality

  Air Quality AQ Index Pollutant
Not available.

Snow Depth

Station Depth Elevation

Earthquake Activity

City Distance Mag. Time & Date
Minimum magnitude displayed is 2.5.

Coastal Water Temperatures

Place Temperature

Nearby Weather Stations